createdAt,value
2022-08-22T00:14:44.487Z,21.81
2022-08-22T00:34:44.531Z,21.62
2022-08-22T00:54:44.450Z,21.87
2022-08-22T01:14:44.376Z,21.75
2022-08-22T01:34:44.412Z,21.81
2022-08-22T01:54:44.331Z,21.68
2022-08-22T02:14:44.353Z,21.62
2022-08-22T02:34:44.280Z,21.56
2022-08-22T02:54:44.308Z,21.75
2022-08-22T03:14:44.333Z,21.56
2022-08-22T03:34:44.262Z,21.56
2022-08-22T03:54:44.289Z,21.68
2022-08-22T04:14:44.218Z,21.56
2022-08-22T04:34:44.242Z,21.68
2022-08-22T04:54:44.165Z,21.62
2022-08-22T05:14:44.208Z,21.50
2022-08-22T05:34:44.122Z,21.43
2022-08-22T05:54:44.147Z,21.50
2022-08-22T06:14:44.071Z,21.43
2022-08-22T06:34:44.103Z,21.56
2022-08-22T06:54:44.044Z,21.62
2022-08-22T07:14:43.978Z,21.56
2022-08-22T07:34:44.005Z,21.43
2022-08-22T07:54:43.933Z,21.43
2022-08-22T08:14:43.961Z,21.62
2022-08-22T08:34:43.891Z,21.81
2022-08-22T08:54:43.960Z,21.75
2022-08-22T09:14:43.851Z,21.68
2022-08-22T09:34:43.818Z,21.68
2022-08-22T09:54:43.815Z,21.50
2022-08-22T10:14:43.759Z,21.81
2022-08-22T10:34:43.795Z,22.00
2022-08-22T10:54:43.707Z,21.87
2022-08-22T11:14:43.648Z,22.00
2022-08-22T11:34:43.681Z,21.87
2022-08-22T11:54:43.601Z,22.18
2022-08-22T12:14:43.627Z,22.00
2022-08-22T12:34:43.564Z,22.00
2022-08-22T12:54:43.497Z,22.06
2022-08-22T13:14:43.571Z,22.37
2022-08-22T13:34:43.467Z,22.37
2022-08-22T13:54:43.403Z,22.37
2022-08-22T14:14:43.449Z,22.31
2022-08-22T14:34:43.434Z,22.31
2022-08-22T14:54:43.316Z,22.25
2022-08-22T15:14:43.359Z,22.31
2022-08-22T15:34:43.296Z,22.25
2022-08-22T15:54:43.245Z,22.18
2022-08-22T16:14:43.190Z,22.37
2022-08-22T16:34:43.230Z,22.31
2022-08-22T16:54:43.182Z,22.31
2022-08-22T17:14:43.130Z,22.25
2022-08-22T17:34:43.087Z,22.31
2022-08-22T17:54:43.038Z,22.00
2022-08-22T18:14:43.086Z,22.00
2022-08-22T18:34:43.033Z,22.06
2022-08-22T18:54:42.975Z,22.06
2022-08-22T19:14:43.030Z,22.18
2022-08-22T19:34:42.958Z,22.12
2022-08-22T19:54:42.895Z,21.87
2022-08-22T20:14:42.932Z,22.00
2022-08-22T20:34:42.871Z,21.93
2022-08-22T20:54:42.910Z,21.93
2022-08-22T21:14:42.841Z,22.06
2022-08-22T21:34:42.777Z,21.81
2022-08-22T21:54:42.810Z,21.87
2022-08-22T22:14:42.745Z,22.00
2022-08-22T22:34:42.775Z,21.81
2022-08-22T22:54:42.710Z,21.75
2022-08-22T23:14:42.744Z,21.87
2022-08-22T23:34:42.671Z,21.75
2022-08-22T23:54:42.719Z,21.87
